sensor_id;sensor_type;location;lat;lon;timestamp;P1;durP1;ratioP1;P2;durP2;ratioP2
57309;SDS011;43153;50.984;18.204;2022-12-11T00:01:55;45.50;;;17.10;;
57309;SDS011;43153;50.984;18.204;2022-12-11T00:04:20;48.20;;;17.20;;
57309;SDS011;43153;50.984;18.204;2022-12-11T00:06:52;49.70;;;18.60;;
57309;SDS011;43153;50.984;18.204;2022-12-11T00:09:20;45.50;;;16.20;;
57309;SDS011;43153;50.984;18.204;2022-12-11T00:11:47;46.80;;;17.30;;
57309;SDS011;43153;50.984;18.204;2022-12-11T00:14:13;50.00;;;17.80;;
57309;SDS011;43153;50.984;18.204;2022-12-11T00:16:41;46.40;;;18.00;;
57309;SDS011;43153;50.984;18.204;2022-12-11T00:19:07;52.40;;;19.60;;
57309;SDS011;43153;50.984;18.204;2022-12-11T00:21:33;53.10;;;19.90;;
57309;SDS011;43153;50.984;18.204;2022-12-11T00:24:01;50.10;;;17.40;;
57309;SDS011;43153;50.984;18.204;2022-12-11T00:26:30;46.70;;;16.70;;
57309;SDS011;43153;50.984;18.204;2022-12-11T00:28:58;47.10;;;18.50;;
57309;SDS011;43153;50.984;18.204;2022-12-11T00:31:26;39.70;;;16.20;;
57309;SDS011;43153;50.984;18.204;2022-12-11T00:33:52;44.30;;;16.80;;
57309;SDS011;43153;50.984;18.204;2022-12-11T00:36:23;46.00;;;16.30;;
57309;SDS011;43153;50.984;18.204;2022-12-11T00:38:54;44.50;;;15.60;;
57309;SDS011;43153;50.984;18.204;2022-12-11T00:41:20;43.00;;;16.50;;
57309;SDS011;43153;50.984;18.204;2022-12-11T00:43:47;42.90;;;17.10;;
57309;SDS011;43153;50.984;18.204;2022-12-11T00:46:15;43.80;;;14.80;;
57309;SDS011;43153;50.984;18.204;2022-12-11T00:48:42;44.40;;;16.40;;
57309;SDS011;43153;50.984;18.204;2022-12-11T00:51:13;41.70;;;17.60;;
57309;SDS011;43153;50.984;18.204;2022-12-11T00:53:41;40.90;;;17.10;;
57309;SDS011;43153;50.984;18.204;2022-12-11T00:56:13;40.70;;;16.70;;
57309;SDS011;43153;50.984;18.204;2022-12-11T00:58:40;38.60;;;14.30;;
57309;SDS011;43153;50.984;18.204;2022-12-11T01:01:08;47.00;;;16.60;;
57309;SDS011;43153;50.984;18.204;2022-12-11T01:03:36;37.30;;;14.40;;
57309;SDS011;43153;50.984;18.204;2022-12-11T01:06:03;45.50;;;17.20;;
57309;SDS011;43153;50.984;18.204;2022-12-11T01:11:04;41.00;;;15.10;;
57309;SDS011;43153;50.984;18.204;2022-12-11T01:13:32;36.60;;;14.10;;
57309;SDS011;43153;50.984;18.204;2022-12-11T01:16:07;38.00;;;15.70;;
57309;SDS011;43153;50.984;18.204;2022-12-11T01:18:35;48.90;;;17.50;;
57309;SDS011;43153;50.984;18.204;2022-12-11T01:21:05;40.80;;;15.20;;
57309;SDS011;43153;50.984;18.204;2022-12-11T01:23:37;36.80;;;14.90;;
57309;SDS011;43153;50.984;18.204;2022-12-11T01:26:13;31.00;;;14.60;;
57309;SDS011;43153;50.984;18.204;2022-12-11T01:28:39;40.20;;;16.20;;
57309;SDS011;43153;50.984;18.204;2022-12-11T01:31:11;36.70;;;15.80;;
57309;SDS011;43153;50.984;18.204;2022-12-11T01:33:39;36.00;;;14.10;;
57309;SDS011;43153;50.984;18.204;2022-12-11T01:36:07;35.00;;;13.70;;
57309;SDS011;43153;50.984;18.204;2022-12-11T01:38:36;33.10;;;14.40;;
57309;SDS011;43153;50.984;18.204;2022-12-11T01:41:03;32.40;;;12.40;;
57309;SDS011;43153;50.984;18.204;2022-12-11T01:43:31;37.10;;;13.50;;
57309;SDS011;43153;50.984;18.204;2022-12-11T01:45:57;33.60;;;12.70;;
57309;SDS011;43153;50.984;18.204;2022-12-11T01:48:24;32.90;;;12.20;;
57309;SDS011;43153;50.984;18.204;2022-12-11T01:50:58;37.90;;;15.70;;
57309;SDS011;43153;50.984;18.204;2022-12-11T01:55:54;36.80;;;13.90;;
57309;SDS011;43153;50.984;18.204;2022-12-11T01:58:22;29.50;;;11.80;;
57309;SDS011;43153;50.984;18.204;2022-12-11T02:00:51;33.10;;;13.30;;
57309;SDS011;43153;50.984;18.204;2022-12-11T02:03:18;33.40;;;13.10;;
57309;SDS011;43153;50.984;18.204;2022-12-11T02:05:45;33.20;;;11.80;;
57309;SDS011;43153;50.984;18.204;2022-12-11T02:08:14;36.10;;;15.00;;
57309;SDS011;43153;50.984;18.204;2022-12-11T02:10:56;33.90;;;12.70;;
57309;SDS011;43153;50.984;18.204;2022-12-11T02:13:38;41.00;;;16.10;;
57309;SDS011;43153;50.984;18.204;2022-12-11T02:16:25;36.80;;;14.10;;
57309;SDS011;43153;50.984;18.204;2022-12-11T02:19:07;37.70;;;15.10;;
57309;SDS011;43153;50.984;18.204;2022-12-11T02:21:37;35.80;;;15.20;;
57309;SDS011;43153;50.984;18.204;2022-12-11T02:29:32;41.20;;;14.50;;
57309;SDS011;43153;50.984;18.204;2022-12-11T02:35:14;37.30;;;14.50;;
57309;SDS011;43153;50.984;18.204;2022-12-11T02:37:44;45.40;;;15.10;;
57309;SDS011;43153;50.984;18.204;2022-12-11T02:40:12;42.40;;;15.30;;
57309;SDS011;43153;50.984;18.204;2022-12-11T02:42:39;43.90;;;15.50;;
57309;SDS011;43153;50.984;18.204;2022-12-11T02:45:07;40.30;;;16.50;;
57309;SDS011;43153;50.984;18.204;2022-12-11T02:47:36;40.10;;;15.80;;
57309;SDS011;43153;50.984;18.204;2022-12-11T02:50:02;42.10;;;16.40;;
57309;SDS011;43153;50.984;18.204;2022-12-11T02:55:03;44.10;;;16.40;;
57309;SDS011;43153;50.984;18.204;2022-12-11T03:00:26;38.60;;;15.20;;
57309;SDS011;43153;50.984;18.204;2022-12-11T03:02:55;41.30;;;16.30;;
57309;SDS011;43153;50.984;18.204;2022-12-11T03:05:24;42.10;;;15.00;;
57309;SDS011;43153;50.984;18.204;2022-12-11T03:07:53;40.60;;;15.10;;
57309;SDS011;43153;50.984;18.204;2022-12-11T03:10:19;44.00;;;16.60;;
57309;SDS011;43153;50.984;18.204;2022-12-11T03:12:47;46.20;;;17.70;;
57309;SDS011;43153;50.984;18.204;2022-12-11T03:15:16;37.40;;;15.50;;
57309;SDS011;43153;50.984;18.204;2022-12-11T03:17:54;43.20;;;15.90;;
57309;SDS011;43153;50.984;18.204;2022-12-11T03:23:28;46.90;;;16.90;;
57309;SDS011;43153;50.984;18.204;2022-12-11T03:25:58;45.20;;;14.80;;
57309;SDS011;43153;50.984;18.204;2022-12-11T03:28:41;49.80;;;16.30;;
57309;SDS011;43153;50.984;18.204;2022-12-11T03:31:28;45.20;;;16.50;;
57309;SDS011;43153;50.984;18.204;2022-12-11T03:34:02;48.40;;;17.90;;
57309;SDS011;43153;50.984;18.204;2022-12-11T03:36:35;46.20;;;17.70;;
57309;SDS011;43153;50.984;18.204;2022-12-11T03:39:06;48.30;;;16.90;;
57309;SDS011;43153;50.984;18.204;2022-12-11T03:41:37;49.30;;;15.30;;
57309;SDS011;43153;50.984;18.204;2022-12-11T03:44:05;45.40;;;16.90;;
57309;SDS011;43153;50.984;18.204;2022-12-11T03:46:33;50.10;;;17.40;;
57309;SDS011;43153;50.984;18.204;2022-12-11T03:49:08;43.00;;;16.00;;
57309;SDS011;43153;50.984;18.204;2022-12-11T03:51:38;47.70;;;17.20;;
57309;SDS011;43153;50.984;18.204;2022-12-11T03:54:07;50.40;;;17.90;;
57309;SDS011;43153;50.984;18.204;2022-12-11T03:56:33;52.40;;;18.60;;
57309;SDS011;43153;50.984;18.204;2022-12-11T03:59:11;54.50;;;19.70;;
57309;SDS011;43153;50.984;18.204;2022-12-11T04:01:41;45.70;;;18.20;;
57309;SDS011;43153;50.984;18.204;2022-12-11T04:04:07;49.00;;;18.20;;
57309;SDS011;43153;50.984;18.204;2022-12-11T04:06:34;47.80;;;16.50;;
57309;SDS011;43153;50.984;18.204;2022-12-11T04:09:03;46.20;;;18.30;;
57309;SDS011;43153;50.984;18.204;2022-12-11T04:11:30;66.50;;;22.20;;
57309;SDS011;43153;50.984;18.204;2022-12-11T04:14:11;50.80;;;19.40;;
57309;SDS011;43153;50.984;18.204;2022-12-11T04:16:57;55.00;;;18.70;;
57309;SDS011;43153;50.984;18.204;2022-12-11T04:19:24;48.10;;;18.90;;
57309;SDS011;43153;50.984;18.204;2022-12-11T04:22:09;46.10;;;19.10;;
57309;SDS011;43153;50.984;18.204;2022-12-11T04:24:55;54.00;;;20.20;;
57309;SDS011;43153;50.984;18.204;2022-12-11T04:27:22;50.40;;;20.50;;
57309;SDS011;43153;50.984;18.204;2022-12-11T04:30:07;45.50;;;16.60;;
57309;SDS011;43153;50.984;18.204;2022-12-11T04:32:37;41.20;;;15.90;;
57309;SDS011;43153;50.984;18.204;2022-12-11T04:35:04;42.50;;;15.30;;
57309;SDS011;43153;50.984;18.204;2022-12-11T04:37:32;49.40;;;20.60;;
57309;SDS011;43153;50.984;18.204;2022-12-11T04:40:00;46.40;;;17.20;;
57309;SDS011;43153;50.984;18.204;2022-12-11T04:42:27;43.80;;;16.40;;
57309;SDS011;43153;50.984;18.204;2022-12-11T04:44:53;48.60;;;18.20;;
57309;SDS011;43153;50.984;18.204;2022-12-11T04:47:18;50.60;;;19.10;;
57309;SDS011;43153;50.984;18.204;2022-12-11T04:49:46;56.40;;;19.70;;
57309;SDS011;43153;50.984;18.204;2022-12-11T04:52:12;55.10;;;19.10;;
57309;SDS011;43153;50.984;18.204;2022-12-11T04:54:38;46.80;;;18.10;;
57309;SDS011;43153;50.984;18.204;2022-12-11T04:57:05;41.60;;;16.50;;
57309;SDS011;43153;50.984;18.204;2022-12-11T04:59:32;48.40;;;18.80;;
57309;SDS011;43153;50.984;18.204;2022-12-11T05:01:57;42.40;;;17.20;;
57309;SDS011;43153;50.984;18.204;2022-12-11T05:04:25;41.90;;;15.70;;
57309;SDS011;43153;50.984;18.204;2022-12-11T05:06:57;41.00;;;16.00;;
57309;SDS011;43153;50.984;18.204;2022-12-11T05:09:26;45.00;;;16.20;;
57309;SDS011;43153;50.984;18.204;2022-12-11T05:11:52;40.50;;;16.40;;
57309;SDS011;43153;50.984;18.204;2022-12-11T05:14:20;39.20;;;15.90;;
57309;SDS011;43153;50.984;18.204;2022-12-11T05:16:46;40.80;;;15.80;;
57309;SDS011;43153;50.984;18.204;2022-12-11T05:19:12;37.90;;;14.70;;
57309;SDS011;43153;50.984;18.204;2022-12-11T05:21:41;47.70;;;18.00;;
57309;SDS011;43153;50.984;18.204;2022-12-11T05:24:07;45.10;;;18.00;;
57309;SDS011;43153;50.984;18.204;2022-12-11T05:26:33;46.80;;;17.40;;
57309;SDS011;43153;50.984;18.204;2022-12-11T05:29:03;47.90;;;17.20;;
57309;SDS011;43153;50.984;18.204;2022-12-11T05:31:29;50.90;;;18.90;;
57309;SDS011;43153;50.984;18.204;2022-12-11T05:33:55;53.10;;;20.90;;
57309;SDS011;43153;50.984;18.204;2022-12-11T05:36:25;41.30;;;16.00;;
57309;SDS011;43153;50.984;18.204;2022-12-11T05:38:53;45.60;;;17.20;;
57309;SDS011;43153;50.984;18.204;2022-12-11T05:41:20;47.50;;;20.00;;
57309;SDS011;43153;50.984;18.204;2022-12-11T05:43:49;48.90;;;19.70;;
57309;SDS011;43153;50.984;18.204;2022-12-11T05:46:19;53.30;;;19.40;;
57309;SDS011;43153;50.984;18.204;2022-12-11T05:48:47;49.60;;;20.90;;
57309;SDS011;43153;50.984;18.204;2022-12-11T05:51:14;51.20;;;19.90;;
57309;SDS011;43153;50.984;18.204;2022-12-11T05:53:43;43.40;;;17.70;;
57309;SDS011;43153;50.984;18.204;2022-12-11T05:56:12;49.50;;;19.90;;
57309;SDS011;43153;50.984;18.204;2022-12-11T05:58:40;46.20;;;18.60;;
57309;SDS011;43153;50.984;18.204;2022-12-11T06:01:09;46.00;;;20.50;;
57309;SDS011;43153;50.984;18.204;2022-12-11T06:03:43;48.40;;;18.80;;
57309;SDS011;43153;50.984;18.204;2022-12-11T06:06:14;43.30;;;17.60;;
57309;SDS011;43153;50.984;18.204;2022-12-11T06:08:42;44.90;;;17.40;;
57309;SDS011;43153;50.984;18.204;2022-12-11T06:11:07;44.50;;;19.10;;
57309;SDS011;43153;50.984;18.204;2022-12-11T06:13:36;44.50;;;18.30;;
57309;SDS011;43153;50.984;18.204;2022-12-11T06:16:05;47.60;;;18.40;;
57309;SDS011;43153;50.984;18.204;2022-12-11T06:18:36;48.50;;;18.10;;
57309;SDS011;43153;50.984;18.204;2022-12-11T06:21:14;47.60;;;20.30;;
57309;SDS011;43153;50.984;18.204;2022-12-11T06:23:50;50.10;;;18.30;;
57309;SDS011;43153;50.984;18.204;2022-12-11T06:26:21;49.80;;;18.50;;
57309;SDS011;43153;50.984;18.204;2022-12-11T06:28:48;46.70;;;17.60;;
57309;SDS011;43153;50.984;18.204;2022-12-11T06:31:14;47.80;;;17.70;;
57309;SDS011;43153;50.984;18.204;2022-12-11T06:33:48;48.10;;;19.50;;
57309;SDS011;43153;50.984;18.204;2022-12-11T06:36:15;44.00;;;18.80;;
57309;SDS011;43153;50.984;18.204;2022-12-11T06:38:42;44.70;;;16.80;;
57309;SDS011;43153;50.984;18.204;2022-12-11T06:41:08;40.20;;;17.10;;
57309;SDS011;43153;50.984;18.204;2022-12-11T06:43:36;45.50;;;18.20;;
57309;SDS011;43153;50.984;18.204;2022-12-11T06:46:07;42.40;;;17.20;;
57309;SDS011;43153;50.984;18.204;2022-12-11T06:48:35;48.70;;;19.60;;
57309;SDS011;43153;50.984;18.204;2022-12-11T06:51:03;41.70;;;16.50;;
57309;SDS011;43153;50.984;18.204;2022-12-11T06:53:34;44.50;;;18.50;;
57309;SDS011;43153;50.984;18.204;2022-12-11T06:56:05;39.10;;;15.90;;
57309;SDS011;43153;50.984;18.204;2022-12-11T06:58:32;47.70;;;17.40;;
57309;SDS011;43153;50.984;18.204;2022-12-11T07:00:59;38.70;;;16.40;;
57309;SDS011;43153;50.984;18.204;2022-12-11T07:03:29;45.20;;;16.50;;
57309;SDS011;43153;50.984;18.204;2022-12-11T07:05:59;38.20;;;16.80;;
57309;SDS011;43153;50.984;18.204;2022-12-11T07:08:27;38.30;;;15.60;;
57309;SDS011;43153;50.984;18.204;2022-12-11T07:10:54;47.80;;;16.90;;
57309;SDS011;43153;50.984;18.204;2022-12-11T07:13:20;51.50;;;18.80;;
57309;SDS011;43153;50.984;18.204;2022-12-11T07:15:46;42.30;;;16.30;;
57309;SDS011;43153;50.984;18.204;2022-12-11T07:18:12;40.00;;;16.00;;
57309;SDS011;43153;50.984;18.204;2022-12-11T07:20:44;43.80;;;17.20;;
57309;SDS011;43153;50.984;18.204;2022-12-11T07:23:10;47.60;;;19.60;;
57309;SDS011;43153;50.984;18.204;2022-12-11T07:25:37;45.50;;;17.60;;
57309;SDS011;43153;50.984;18.204;2022-12-11T07:28:03;48.20;;;20.10;;
57309;SDS011;43153;50.984;18.204;2022-12-11T07:30:29;50.00;;;19.40;;
57309;SDS011;43153;50.984;18.204;2022-12-11T07:32:58;51.90;;;20.10;;
57309;SDS011;43153;50.984;18.204;2022-12-11T07:35:25;45.60;;;22.10;;
57309;SDS011;43153;50.984;18.204;2022-12-11T07:37:51;46.00;;;19.40;;
57309;SDS011;43153;50.984;18.204;2022-12-11T07:40:17;42.90;;;18.50;;
57309;SDS011;43153;50.984;18.204;2022-12-11T07:42:47;43.70;;;18.40;;
57309;SDS011;43153;50.984;18.204;2022-12-11T07:45:16;34.50;;;14.30;;
57309;SDS011;43153;50.984;18.204;2022-12-11T07:47:42;37.20;;;16.20;;
57309;SDS011;43153;50.984;18.204;2022-12-11T07:50:11;36.70;;;15.90;;
57309;SDS011;43153;50.984;18.204;2022-12-11T07:52:37;33.00;;;15.10;;
57309;SDS011;43153;50.984;18.204;2022-12-11T07:55:04;35.10;;;15.70;;
57309;SDS011;43153;50.984;18.204;2022-12-11T07:57:35;39.70;;;16.80;;
57309;SDS011;43153;50.984;18.204;2022-12-11T08:00:02;43.60;;;18.90;;
57309;SDS011;43153;50.984;18.204;2022-12-11T08:02:29;45.30;;;17.00;;
57309;SDS011;43153;50.984;18.204;2022-12-11T08:04:56;40.60;;;16.60;;
57309;SDS011;43153;50.984;18.204;2022-12-11T08:07:22;38.80;;;16.10;;
57309;SDS011;43153;50.984;18.204;2022-12-11T08:09:50;43.60;;;17.20;;
57309;SDS011;43153;50.984;18.204;2022-12-11T08:12:16;41.50;;;18.00;;
57309;SDS011;43153;50.984;18.204;2022-12-11T08:14:42;48.50;;;16.50;;
57309;SDS011;43153;50.984;18.204;2022-12-11T08:17:14;44.20;;;16.70;;
57309;SDS011;43153;50.984;18.204;2022-12-11T08:19:44;44.70;;;17.70;;
57309;SDS011;43153;50.984;18.204;2022-12-11T08:22:11;42.40;;;17.70;;
57309;SDS011;43153;50.984;18.204;2022-12-11T08:24:41;48.50;;;17.70;;
57309;SDS011;43153;50.984;18.204;2022-12-11T08:27:12;50.10;;;17.70;;
57309;SDS011;43153;50.984;18.204;2022-12-11T08:29:38;44.00;;;18.30;;
57309;SDS011;43153;50.984;18.204;2022-12-11T08:32:04;47.40;;;19.50;;
57309;SDS011;43153;50.984;18.204;2022-12-11T08:34:30;43.70;;;18.20;;
57309;SDS011;43153;50.984;18.204;2022-12-11T08:36:56;43.30;;;19.50;;
57309;SDS011;43153;50.984;18.204;2022-12-11T08:39:25;44.90;;;16.80;;
57309;SDS011;43153;50.984;18.204;2022-12-11T08:41:55;51.40;;;21.00;;
57309;SDS011;43153;50.984;18.204;2022-12-11T08:44:21;45.10;;;19.00;;
57309;SDS011;43153;50.984;18.204;2022-12-11T08:46:50;46.50;;;18.50;;
57309;SDS011;43153;50.984;18.204;2022-12-11T08:49:22;44.00;;;18.60;;
57309;SDS011;43153;50.984;18.204;2022-12-11T08:51:53;48.10;;;20.00;;
57309;SDS011;43153;50.984;18.204;2022-12-11T08:54:23;49.80;;;20.10;;
57309;SDS011;43153;50.984;18.204;2022-12-11T08:56:52;52.60;;;20.50;;
57309;SDS011;43153;50.984;18.204;2022-12-11T08:59:17;51.00;;;19.40;;
57309;SDS011;43153;50.984;18.204;2022-12-11T09:01:43;58.60;;;23.60;;
57309;SDS011;43153;50.984;18.204;2022-12-11T09:04:13;50.80;;;20.30;;
57309;SDS011;43153;50.984;18.204;2022-12-11T09:06:39;54.00;;;20.80;;
57309;SDS011;43153;50.984;18.204;2022-12-11T09:09:10;50.90;;;20.60;;
57309;SDS011;43153;50.984;18.204;2022-12-11T09:11:40;58.00;;;20.80;;
57309;SDS011;43153;50.984;18.204;2022-12-11T09:14:08;48.90;;;21.00;;
57309;SDS011;43153;50.984;18.204;2022-12-11T09:16:36;49.60;;;20.60;;
57309;SDS011;43153;50.984;18.204;2022-12-11T09:19:07;54.10;;;19.90;;
57309;SDS011;43153;50.984;18.204;2022-12-11T09:21:38;55.00;;;22.30;;
57309;SDS011;43153;50.984;18.204;2022-12-11T09:24:05;53.20;;;20.20;;
57309;SDS011;43153;50.984;18.204;2022-12-11T09:26:31;49.50;;;20.50;;
57309;SDS011;43153;50.984;18.204;2022-12-11T09:29:01;48.50;;;18.50;;
57309;SDS011;43153;50.984;18.204;2022-12-11T09:31:28;48.70;;;19.70;;
57309;SDS011;43153;50.984;18.204;2022-12-11T09:33:58;49.00;;;18.50;;
57309;SDS011;43153;50.984;18.204;2022-12-11T09:36:26;48.60;;;18.50;;
57309;SDS011;43153;50.984;18.204;2022-12-11T09:38:52;44.30;;;18.20;;
57309;SDS011;43153;50.984;18.204;2022-12-11T09:44:06;44.90;;;18.00;;
57309;SDS011;43153;50.984;18.204;2022-12-11T09:46:39;44.00;;;17.50;;
57309;SDS011;43153;50.984;18.204;2022-12-11T09:49:08;43.20;;;17.80;;
57309;SDS011;43153;50.984;18.204;2022-12-11T09:54:24;42.60;;;16.20;;
57309;SDS011;43153;50.984;18.204;2022-12-11T09:57:10;41.50;;;16.50;;
57309;SDS011;43153;50.984;18.204;2022-12-11T10:00:04;48.20;;;18.60;;
57309;SDS011;43153;50.984;18.204;2022-12-11T10:02:43;47.50;;;19.60;;
57309;SDS011;43153;50.984;18.204;2022-12-11T10:08:27;47.10;;;18.50;;
57309;SDS011;43153;50.984;18.204;2022-12-11T10:14:42;46.00;;;18.30;;
57309;SDS011;43153;50.984;18.204;2022-12-11T10:17:27;39.90;;;17.30;;
57309;SDS011;43153;50.984;18.204;2022-12-11T10:20:13;48.20;;;18.90;;
57309;SDS011;43153;50.984;18.204;2022-12-11T10:22:46;49.60;;;18.40;;
57309;SDS011;43153;50.984;18.204;2022-12-11T10:25:30;44.70;;;19.00;;
57309;SDS011;43153;50.984;18.204;2022-12-11T10:28:13;45.10;;;17.10;;
57309;SDS011;43153;50.984;18.204;2022-12-11T10:33:34;44.70;;;17.90;;
57309;SDS011;43153;50.984;18.204;2022-12-11T10:36:06;45.70;;;16.70;;
57309;SDS011;43153;50.984;18.204;2022-12-11T10:38:39;48.50;;;18.50;;
57309;SDS011;43153;50.984;18.204;2022-12-11T10:41:42;45.00;;;17.80;;
57309;SDS011;43153;50.984;18.204;2022-12-11T10:46:59;41.80;;;17.60;;
57309;SDS011;43153;50.984;18.204;2022-12-11T10:49:33;46.40;;;17.10;;
57309;SDS011;43153;50.984;18.204;2022-12-11T10:52:41;49.40;;;19.30;;
57309;SDS011;43153;50.984;18.204;2022-12-11T10:55:18;48.50;;;18.60;;
57309;SDS011;43153;50.984;18.204;2022-12-11T10:58:16;42.00;;;17.30;;
57309;SDS011;43153;50.984;18.204;2022-12-11T11:03:31;51.80;;;19.40;;
57309;SDS011;43153;50.984;18.204;2022-12-11T11:06:13;41.40;;;17.30;;
57309;SDS011;43153;50.984;18.204;2022-12-11T11:08:42;39.50;;;17.30;;
57309;SDS011;43153;50.984;18.204;2022-12-11T11:11:25;48.90;;;18.80;;
57309;SDS011;43153;50.984;18.204;2022-12-11T11:16:45;49.40;;;19.10;;
57309;SDS011;43153;50.984;18.204;2022-12-11T11:19:23;43.90;;;16.50;;
57309;SDS011;43153;50.984;18.204;2022-12-11T11:21:51;40.80;;;17.00;;
57309;SDS011;43153;50.984;18.204;2022-12-11T11:27:00;44.50;;;20.40;;
57309;SDS011;43153;50.984;18.204;2022-12-11T11:29:28;43.10;;;18.70;;
57309;SDS011;43153;50.984;18.204;2022-12-11T11:32:00;38.30;;;16.60;;
57309;SDS011;43153;50.984;18.204;2022-12-11T11:34:48;44.30;;;17.50;;
57309;SDS011;43153;50.984;18.204;2022-12-11T11:37:21;44.80;;;17.80;;
57309;SDS011;43153;50.984;18.204;2022-12-11T11:39:54;45.20;;;19.20;;
57309;SDS011;43153;50.984;18.204;2022-12-11T11:45:15;38.70;;;16.80;;
57309;SDS011;43153;50.984;18.204;2022-12-11T11:47:57;45.30;;;19.10;;
57309;SDS011;43153;50.984;18.204;2022-12-11T11:50:31;39.20;;;18.30;;
57309;SDS011;43153;50.984;18.204;2022-12-11T11:55:40;45.30;;;16.90;;
57309;SDS011;43153;50.984;18.204;2022-12-11T11:58:17;41.00;;;18.30;;
57309;SDS011;43153;50.984;18.204;2022-12-11T12:00:52;44.00;;;17.50;;
57309;SDS011;43153;50.984;18.204;2022-12-11T12:03:19;39.00;;;16.70;;
57309;SDS011;43153;50.984;18.204;2022-12-11T12:11:31;44.10;;;17.90;;
57309;SDS011;43153;50.984;18.204;2022-12-11T12:27:52;36.40;;;14.60;;
57309;SDS011;43153;50.984;18.204;2022-12-11T12:30:24;35.60;;;16.00;;
57309;SDS011;43153;50.984;18.204;2022-12-11T12:35:55;34.50;;;14.90;;
57309;SDS011;43153;50.984;18.204;2022-12-11T12:44:19;32.30;;;14.20;;
57309;SDS011;43153;50.984;18.204;2022-12-11T12:46:55;37.30;;;13.80;;
57309;SDS011;43153;50.984;18.204;2022-12-11T12:49:51;35.00;;;14.10;;
57309;SDS011;43153;50.984;18.204;2022-12-11T12:52:20;35.00;;;14.30;;
57309;SDS011;43153;50.984;18.204;2022-12-11T12:55:22;26.50;;;10.80;;
57309;SDS011;43153;50.984;18.204;2022-12-11T12:57:55;31.60;;;14.50;;
57309;SDS011;43153;50.984;18.204;2022-12-11T13:06:00;30.70;;;13.30;;
57309;SDS011;43153;50.984;18.204;2022-12-11T13:08:33;28.60;;;12.20;;
57309;SDS011;43153;50.984;18.204;2022-12-11T13:11:10;27.80;;;11.80;;
57309;SDS011;43153;50.984;18.204;2022-12-11T13:13:42;28.00;;;11.70;;
57309;SDS011;43153;50.984;18.204;2022-12-11T13:18:47;25.40;;;11.10;;
57309;SDS011;43153;50.984;18.204;2022-12-11T13:24:12;27.60;;;11.40;;
57309;SDS011;43153;50.984;18.204;2022-12-11T13:26:49;28.40;;;12.30;;
57309;SDS011;43153;50.984;18.204;2022-12-11T13:34:36;28.40;;;12.50;;
57309;SDS011;43153;50.984;18.204;2022-12-11T13:37:20;30.00;;;12.10;;
57309;SDS011;43153;50.984;18.204;2022-12-11T13:39:58;26.70;;;11.10;;
57309;SDS011;43153;50.984;18.204;2022-12-11T13:42:30;26.60;;;11.50;;
57309;SDS011;43153;50.984;18.204;2022-12-11T13:44:58;26.60;;;12.30;;
57309;SDS011;43153;50.984;18.204;2022-12-11T13:47:26;30.10;;;13.20;;
57309;SDS011;43153;50.984;18.204;2022-12-11T13:50:00;27.00;;;11.40;;
57309;SDS011;43153;50.984;18.204;2022-12-11T13:52:55;29.30;;;10.70;;
57309;SDS011;43153;50.984;18.204;2022-12-11T13:55:26;26.30;;;13.20;;
57309;SDS011;43153;50.984;18.204;2022-12-11T13:57:54;30.00;;;12.80;;
57309;SDS011;43153;50.984;18.204;2022-12-11T14:00:23;34.60;;;12.70;;
57309;SDS011;43153;50.984;18.204;2022-12-11T14:02:55;26.30;;;12.30;;
57309;SDS011;43153;50.984;18.204;2022-12-11T14:05:24;30.70;;;12.70;;
57309;SDS011;43153;50.984;18.204;2022-12-11T14:08:03;28.40;;;13.00;;
57309;SDS011;43153;50.984;18.204;2022-12-11T14:10:36;29.50;;;11.80;;
57309;SDS011;43153;50.984;18.204;2022-12-11T14:13:05;28.50;;;13.20;;
57309;SDS011;43153;50.984;18.204;2022-12-11T14:15:43;35.00;;;15.20;;
57309;SDS011;43153;50.984;18.204;2022-12-11T14:18:47;32.20;;;13.10;;
57309;SDS011;43153;50.984;18.204;2022-12-11T14:21:31;38.20;;;14.60;;
57309;SDS011;43153;50.984;18.204;2022-12-11T14:24:04;35.30;;;14.70;;
57309;SDS011;43153;50.984;18.204;2022-12-11T14:26:36;38.50;;;15.10;;
57309;SDS011;43153;50.984;18.204;2022-12-11T14:29:04;36.60;;;14.40;;
57309;SDS011;43153;50.984;18.204;2022-12-11T14:31:39;29.30;;;14.10;;
57309;SDS011;43153;50.984;18.204;2022-12-11T14:34:13;31.80;;;14.80;;
57309;SDS011;43153;50.984;18.204;2022-12-11T14:36:41;34.20;;;15.00;;
57309;SDS011;43153;50.984;18.204;2022-12-11T14:39:12;37.30;;;15.30;;
57309;SDS011;43153;50.984;18.204;2022-12-11T14:44:16;31.80;;;12.70;;
57309;SDS011;43153;50.984;18.204;2022-12-11T14:46:46;32.90;;;14.00;;
57309;SDS011;43153;50.984;18.204;2022-12-11T14:52:15;34.90;;;15.00;;
57309;SDS011;43153;50.984;18.204;2022-12-11T14:54:49;32.50;;;15.00;;
57309;SDS011;43153;50.984;18.204;2022-12-11T14:57:18;33.20;;;13.80;;
57309;SDS011;43153;50.984;18.204;2022-12-11T14:59:48;32.80;;;15.10;;
57309;SDS011;43153;50.984;18.204;2022-12-11T15:05:11;33.00;;;14.80;;
57309;SDS011;43153;50.984;18.204;2022-12-11T15:10:36;30.80;;;15.10;;
57309;SDS011;43153;50.984;18.204;2022-12-11T15:13:08;32.10;;;15.50;;
57309;SDS011;43153;50.984;18.204;2022-12-11T15:15:44;37.80;;;15.80;;
57309;SDS011;43153;50.984;18.204;2022-12-11T15:18:19;35.70;;;17.30;;
57309;SDS011;43153;50.984;18.204;2022-12-11T15:20:51;37.10;;;16.30;;
57309;SDS011;43153;50.984;18.204;2022-12-11T15:23:23;32.50;;;14.50;;
57309;SDS011;43153;50.984;18.204;2022-12-11T15:25:53;34.60;;;15.50;;
57309;SDS011;43153;50.984;18.204;2022-12-11T15:28:28;36.40;;;15.90;;
57309;SDS011;43153;50.984;18.204;2022-12-11T15:30:55;40.80;;;15.60;;
57309;SDS011;43153;50.984;18.204;2022-12-11T15:33:25;32.80;;;13.60;;
57309;SDS011;43153;50.984;18.204;2022-12-11T15:35:53;36.60;;;15.80;;
57309;SDS011;43153;50.984;18.204;2022-12-11T15:38:32;36.80;;;17.00;;
57309;SDS011;43153;50.984;18.204;2022-12-11T15:41:01;37.90;;;17.70;;
57309;SDS011;43153;50.984;18.204;2022-12-11T15:43:28;38.10;;;16.70;;
57309;SDS011;43153;50.984;18.204;2022-12-11T15:45:59;38.20;;;17.40;;
57309;SDS011;43153;50.984;18.204;2022-12-11T15:48:28;37.00;;;17.10;;
57309;SDS011;43153;50.984;18.204;2022-12-11T15:50:58;35.90;;;17.20;;
57309;SDS011;43153;50.984;18.204;2022-12-11T15:53:27;39.80;;;16.30;;
57309;SDS011;43153;50.984;18.204;2022-12-11T15:55:53;37.50;;;16.90;;
57309;SDS011;43153;50.984;18.204;2022-12-11T15:58:20;36.50;;;17.00;;
57309;SDS011;43153;50.984;18.204;2022-12-11T16:00:49;36.90;;;16.80;;
57309;SDS011;43153;50.984;18.204;2022-12-11T16:03:18;35.60;;;17.60;;
57309;SDS011;43153;50.984;18.204;2022-12-11T16:05:47;34.60;;;16.60;;
57309;SDS011;43153;50.984;18.204;2022-12-11T16:08:19;34.00;;;15.20;;
57309;SDS011;43153;50.984;18.204;2022-12-11T16:10:50;30.30;;;14.10;;
57309;SDS011;43153;50.984;18.204;2022-12-11T16:13:18;30.80;;;13.90;;
57309;SDS011;43153;50.984;18.204;2022-12-11T16:15:46;29.60;;;13.20;;
57309;SDS011;43153;50.984;18.204;2022-12-11T16:18:14;29.70;;;12.60;;
57309;SDS011;43153;50.984;18.204;2022-12-11T16:20:42;29.40;;;12.90;;